createdAt,value
2023-02-19T00:02:15.672Z,2.57
2023-02-19T00:04:42.544Z,1.70
2023-02-19T00:07:09.411Z,1.53
2023-02-19T00:09:36.276Z,1.80
2023-02-19T00:12:03.155Z,2.20
2023-02-19T00:14:30.041Z,1.70
2023-02-19T00:16:56.846Z,1.67
2023-02-19T00:19:24.288Z,3.07
2023-02-19T00:21:52.846Z,1.50
2023-02-19T00:24:20.506Z,2.00
2023-02-19T00:26:48.213Z,2.63
2023-02-19T00:29:19.873Z,1.83
2023-02-19T00:31:47.383Z,1.70
2023-02-19T00:34:14.953Z,1.50
2023-02-19T00:36:42.999Z,1.20
2023-02-19T00:39:15.571Z,1.80
2023-02-19T00:41:43.198Z,2.40
2023-02-19T00:44:12.104Z,1.77
2023-02-19T00:46:45.999Z,2.47
2023-02-19T00:49:22.949Z,1.80
2023-02-19T00:51:52.347Z,1.70
2023-02-19T00:54:22.356Z,2.00
2023-02-19T00:56:49.637Z,1.47
2023-02-19T00:59:16.738Z,2.20
2023-02-19T01:01:44.991Z,2.03
2023-02-19T01:04:12.080Z,1.30
2023-02-19T01:06:38.875Z,1.33
2023-02-19T01:09:07.775Z,3.00
2023-02-19T01:11:35.309Z,1.90
2023-02-19T01:14:03.437Z,1.30
2023-02-19T01:16:31.014Z,2.03
2023-02-19T01:19:00.045Z,2.20
2023-02-19T01:21:29.627Z,1.47
2023-02-19T01:23:58.861Z,1.53
2023-02-19T01:26:30.125Z,1.43
2023-02-19T01:28:58.489Z,2.03
2023-02-19T01:31:26.228Z,2.60
2023-02-19T01:34:00.496Z,2.20
2023-02-19T01:36:29.338Z,1.83
2023-02-19T01:38:56.279Z,1.57
2023-02-19T01:41:25.740Z,2.13
2023-02-19T01:44:27.567Z,1.73
2023-02-19T01:46:57.530Z,2.23
2023-02-19T01:49:53.074Z,1.87
2023-02-19T01:52:32.687Z,1.57
2023-02-19T01:55:01.816Z,1.47
2023-02-19T01:57:34.862Z,1.60
2023-02-19T02:00:12.930Z,2.47
2023-02-19T02:02:42.572Z,2.47
2023-02-19T02:05:20.168Z,2.20
2023-02-19T02:08:05.452Z,2.43
2023-02-19T02:10:32.251Z,1.80
2023-02-19T02:12:59.370Z,1.70
2023-02-19T02:15:55.947Z,1.80
2023-02-19T02:18:54.481Z,1.97
2023-02-19T02:21:49.260Z,2.50
2023-02-19T02:24:53.021Z,1.93
2023-02-19T02:27:43.263Z,1.90
2023-02-19T02:30:31.596Z,1.90
2023-02-19T02:33:22.049Z,1.77
2023-02-19T02:35:56.655Z,1.70
2023-02-19T02:38:29.340Z,2.03
2023-02-19T02:40:56.947Z,2.60
2023-02-19T02:43:24.194Z,1.73
2023-02-19T02:45:51.138Z,1.70
2023-02-19T02:48:32.558Z,1.60
2023-02-19T02:51:23.450Z,1.73
2023-02-19T02:54:12.340Z,2.37
2023-02-19T02:56:41.330Z,2.03
2023-02-19T02:59:11.409Z,1.97
2023-02-19T03:02:02.361Z,1.93
2023-02-19T03:04:37.756Z,1.50
2023-02-19T03:07:08.856Z,2.17
2023-02-19T03:09:43.155Z,2.77
2023-02-19T03:12:34.314Z,1.80
2023-02-19T03:15:25.997Z,2.23
2023-02-19T03:18:17.748Z,2.17
2023-02-19T03:20:50.329Z,1.90
2023-02-19T03:23:19.445Z,2.80
2023-02-19T03:26:05.655Z,2.30
2023-02-19T03:28:56.889Z,2.80
2023-02-19T03:31:27.058Z,1.80
2023-02-19T03:34:00.610Z,2.77
2023-02-19T03:36:36.982Z,2.90
2023-02-19T03:39:07.723Z,2.13
2023-02-19T03:41:48.696Z,1.60
2023-02-19T03:44:40.384Z,2.27
2023-02-19T03:47:39.968Z,2.33
2023-02-19T03:50:30.184Z,2.10
2023-02-19T03:53:28.458Z,1.90
2023-02-19T03:56:18.339Z,2.27
2023-02-19T03:59:05.823Z,2.10
2023-02-19T04:01:42.671Z,3.20
2023-02-19T04:04:34.134Z,1.93
2023-02-19T04:07:01.146Z,2.77
2023-02-19T04:09:37.043Z,1.80
2023-02-19T04:12:05.334Z,2.17
2023-02-19T04:14:45.574Z,2.13
2023-02-19T04:17:29.940Z,2.97
2023-02-19T04:19:58.908Z,2.30
2023-02-19T04:22:26.572Z,2.10
2023-02-19T04:24:55.555Z,2.70
2023-02-19T04:27:22.434Z,2.23
2023-02-19T04:29:49.315Z,2.50
2023-02-19T04:32:16.138Z,1.70
2023-02-19T04:34:42.929Z,1.87
2023-02-19T04:37:09.916Z,2.53
2023-02-19T04:39:36.775Z,2.33
2023-02-19T04:42:04.118Z,2.03
2023-02-19T04:44:30.915Z,2.47
2023-02-19T04:46:57.733Z,3.53
2023-02-19T04:49:24.563Z,2.63
2023-02-19T04:51:51.325Z,2.27
2023-02-19T04:54:18.130Z,4.03
2023-02-19T04:56:44.924Z,2.03
2023-02-19T04:59:12.549Z,2.17
2023-02-19T05:01:39.387Z,2.20
2023-02-19T05:04:06.197Z,2.20
2023-02-19T05:06:33.130Z,2.00
2023-02-19T05:08:59.912Z,2.60
2023-02-19T05:11:27.047Z,2.33
2023-02-19T05:13:56.017Z,2.73
2023-02-19T05:16:22.951Z,2.30
2023-02-19T05:18:49.740Z,2.20
2023-02-19T05:21:16.992Z,2.63
2023-02-19T05:23:44.152Z,2.77
2023-02-19T05:26:22.483Z,2.90
2023-02-19T05:28:53.866Z,3.17
2023-02-19T05:31:21.515Z,2.10
2023-02-19T05:33:51.217Z,2.30
2023-02-19T05:36:21.344Z,2.87
2023-02-19T05:38:52.641Z,2.47
2023-02-19T05:41:23.421Z,2.20
2023-02-19T05:43:50.554Z,2.80
2023-02-19T05:46:21.371Z,4.27
2023-02-19T05:48:49.559Z,2.63
2023-02-19T05:51:20.236Z,2.37
2023-02-19T05:53:47.233Z,2.10
2023-02-19T05:56:30.998Z,2.20
2023-02-19T05:58:58.397Z,2.47
2023-02-19T06:01:28.398Z,2.87
2023-02-19T06:03:57.490Z,2.83
2023-02-19T06:06:25.828Z,2.40
2023-02-19T06:08:53.213Z,2.67
2023-02-19T06:11:20.478Z,2.60
2023-02-19T06:13:47.542Z,2.80
2023-02-19T06:16:14.410Z,2.67
2023-02-19T06:18:41.300Z,2.60
2023-02-19T06:21:11.154Z,2.30
2023-02-19T06:23:39.162Z,3.63
2023-02-19T06:26:12.316Z,1.97
2023-02-19T06:28:40.472Z,2.30
2023-02-19T06:31:09.344Z,2.30
2023-02-19T06:33:40.432Z,4.50
2023-02-19T06:36:11.949Z,2.17
2023-02-19T06:38:38.891Z,2.27
2023-02-19T06:41:07.269Z,2.80
2023-02-19T06:43:34.789Z,2.20
2023-02-19T06:46:04.530Z,2.67
2023-02-19T06:48:32.548Z,3.33
2023-02-19T06:50:59.880Z,2.30
2023-02-19T06:53:27.511Z,3.10
2023-02-19T06:56:04.719Z,2.53
2023-02-19T06:58:32.634Z,3.53
2023-02-19T07:00:59.899Z,2.37
2023-02-19T07:03:26.842Z,2.60
2023-02-19T07:05:53.966Z,2.67
2023-02-19T07:08:20.876Z,2.40
2023-02-19T07:10:56.445Z,2.80
2023-02-19T07:13:25.278Z,3.00
2023-02-19T07:15:52.684Z,2.87
2023-02-19T07:18:19.532Z,2.47
2023-02-19T07:20:46.460Z,2.77
2023-02-19T07:23:13.235Z,3.13
2023-02-19T07:25:40.175Z,2.50
2023-02-19T07:28:07.951Z,3.33
2023-02-19T07:30:34.815Z,2.70
2023-02-19T07:33:01.800Z,2.87
2023-02-19T07:35:28.871Z,3.57
2023-02-19T07:37:55.668Z,2.67
2023-02-19T07:40:22.430Z,2.67
2023-02-19T07:42:49.273Z,2.30
2023-02-19T07:45:16.169Z,2.47
2023-02-19T07:47:43.535Z,2.63
2023-02-19T07:50:12.376Z,2.27
2023-02-19T07:52:40.533Z,2.30
2023-02-19T07:55:07.528Z,2.93
2023-02-19T07:57:34.308Z,2.03
2023-02-19T08:00:01.275Z,1.73
2023-02-19T08:02:46.435Z,2.20
2023-02-19T08:05:14.020Z,2.07
2023-02-19T08:07:41.005Z,1.53
2023-02-19T08:10:26.665Z,1.20
2023-02-19T08:13:17.109Z,1.67
2023-02-19T08:15:47.850Z,1.60
2023-02-19T08:18:16.361Z,2.30
2023-02-19T08:20:43.877Z,1.10
2023-02-19T08:23:12.165Z,1.50
2023-02-19T08:25:40.167Z,1.37
2023-02-19T08:28:09.643Z,0.80
2023-02-19T08:30:38.348Z,0.70
2023-02-19T08:33:07.703Z,1.90
2023-02-19T08:35:36.480Z,0.60
2023-02-19T08:38:05.220Z,0.60
2023-02-19T08:40:33.319Z,0.40
2023-02-19T08:43:13.029Z,1.30
2023-02-19T08:45:43.227Z,0.20
2023-02-19T08:48:11.859Z,0.83
2023-02-19T08:50:39.193Z,2.10
2023-02-19T08:53:07.089Z,1.20
2023-02-19T08:55:34.515Z,0.70
2023-02-19T08:58:01.562Z,0.30
2023-02-19T09:00:28.602Z,0.20
2023-02-19T09:02:57.927Z,1.03
2023-02-19T09:05:24.700Z,0.43
2023-02-19T09:07:51.466Z,0.50
2023-02-19T09:10:18.415Z,0.40
2023-02-19T09:12:45.213Z,1.07
2023-02-19T09:15:11.975Z,1.30
2023-02-19T09:17:38.737Z,0.40
2023-02-19T09:20:05.865Z,1.70
2023-02-19T09:22:32.978Z,0.87
2023-02-19T09:24:59.786Z,0.20
2023-02-19T09:27:26.611Z,0.17
2023-02-19T09:29:54.641Z,0.23
2023-02-19T09:32:21.558Z,0.30
2023-02-19T09:34:49.584Z,0.73
2023-02-19T09:37:16.346Z,0.47
2023-02-19T09:39:43.175Z,2.33
2023-02-19T09:42:16.156Z,0.30
2023-02-19T09:44:48.309Z,0.60
2023-02-19T09:47:22.973Z,0.53
2023-02-19T09:49:54.218Z,0.50
2023-02-19T09:52:59.537Z,0.60
2023-02-19T09:55:34.553Z,0.50
2023-02-19T09:58:14.937Z,1.17
2023-02-19T10:00:41.704Z,0.63
2023-02-19T10:03:17.433Z,1.00
2023-02-19T10:05:44.268Z,0.80
2023-02-19T10:08:18.938Z,0.60
2023-02-19T10:10:45.805Z,0.50
2023-02-19T10:13:30.649Z,1.07
2023-02-19T10:16:01.861Z,0.40
2023-02-19T10:18:42.249Z,0.57
2023-02-19T10:21:17.715Z,0.70
2023-02-19T10:23:45.089Z,0.80
2023-02-19T10:26:11.989Z,0.30
2023-02-19T10:28:38.785Z,0.40
2023-02-19T10:31:20.926Z,0.30
2023-02-19T10:33:54.945Z,0.30
2023-02-19T10:36:41.259Z,0.53
2023-02-19T10:39:23.078Z,0.30
2023-02-19T10:41:51.461Z,1.20
2023-02-19T10:44:27.385Z,0.80
2023-02-19T10:46:57.701Z,0.60
2023-02-19T10:49:41.961Z,1.37
2023-02-19T10:52:27.358Z,0.57
2023-02-19T10:55:14.609Z,0.63
2023-02-19T10:57:41.758Z,0.60
2023-02-19T11:00:26.761Z,0.63
2023-02-19T11:03:21.354Z,1.27
2023-02-19T11:06:02.543Z,1.20
2023-02-19T11:08:30.822Z,0.30
2023-02-19T11:10:58.444Z,0.43
2023-02-19T11:13:32.444Z,0.47
2023-02-19T11:16:00.393Z,1.57
2023-02-19T11:18:31.416Z,0.80
2023-02-19T11:21:01.779Z,0.53
2023-02-19T11:23:45.290Z,0.43
2023-02-19T11:26:23.222Z,0.70
2023-02-19T11:29:19.676Z,0.83
2023-02-19T11:31:46.669Z,0.70
2023-02-19T11:34:21.307Z,0.70
2023-02-19T11:37:15.002Z,0.63
2023-02-19T11:39:45.557Z,0.57
2023-02-19T11:42:49.235Z,0.40
2023-02-19T11:46:07.079Z,0.20
2023-02-19T11:49:15.086Z,0.30
2023-02-19T11:52:01.529Z,0.20
2023-02-19T11:54:51.974Z,0.40
2023-02-19T11:57:39.274Z,0.97
2023-02-19T12:00:30.913Z,0.50
2023-02-19T12:03:44.140Z,0.30
2023-02-19T12:06:32.522Z,0.60
2023-02-19T12:09:33.074Z,0.60
2023-02-19T12:12:37.979Z,0.40
2023-02-19T12:15:29.523Z,0.93
2023-02-19T12:18:23.800Z,0.60
2023-02-19T12:21:40.959Z,0.40
2023-02-19T12:24:44.767Z,1.00
2023-02-19T12:27:37.222Z,2.20
2023-02-19T12:30:29.539Z,3.03
2023-02-19T12:33:27.296Z,0.93
2023-02-19T12:36:00.756Z,1.10
2023-02-19T12:38:45.558Z,1.37
2023-02-19T12:41:42.301Z,0.80
2023-02-19T12:44:44.716Z,1.43
2023-02-19T12:47:24.247Z,2.63
2023-02-19T12:50:21.192Z,0.77
2023-02-19T12:52:54.243Z,1.70
2023-02-19T12:55:33.770Z,1.10
2023-02-19T12:58:05.866Z,0.67
2023-02-19T13:00:50.369Z,2.00
2023-02-19T13:03:27.068Z,2.00
2023-02-19T13:06:21.293Z,1.10
2023-02-19T13:09:08.014Z,0.90
2023-02-19T13:11:44.487Z,1.37
2023-02-19T13:14:26.255Z,1.10
2023-02-19T13:17:01.730Z,1.00
2023-02-19T13:19:30.968Z,0.60
2023-02-19T13:22:40.930Z,0.47
2023-02-19T13:25:10.210Z,1.00
2023-02-19T13:27:52.109Z,0.73
2023-02-19T13:30:57.519Z,1.60
2023-02-19T13:34:25.281Z,1.53
2023-02-19T13:36:53.409Z,0.60
2023-02-19T13:39:21.898Z,1.00
2023-02-19T13:41:58.950Z,2.57
2023-02-19T13:44:32.522Z,1.43
2023-02-19T13:46:59.506Z,1.17
2023-02-19T13:49:41.580Z,1.50
2023-02-19T13:52:29.486Z,2.70
2023-02-19T13:55:46.560Z,2.60
2023-02-19T13:58:42.489Z,1.03
2023-02-19T14:01:11.570Z,2.17
2023-02-19T14:03:56.548Z,1.30
2023-02-19T14:06:23.365Z,1.00
2023-02-19T14:09:00.403Z,1.17
2023-02-19T14:11:42.346Z,1.07
2023-02-19T14:14:24.902Z,1.37
2023-02-19T14:17:01.141Z,1.63
2023-02-19T14:19:48.751Z,1.37
2023-02-19T14:22:53.170Z,1.77
2023-02-19T14:25:34.891Z,2.20
2023-02-19T14:28:09.958Z,1.50
2023-02-19T14:30:58.881Z,1.43
2023-02-19T14:33:40.233Z,1.47
2023-02-19T14:36:50.327Z,1.23
2023-02-19T14:39:19.284Z,0.80
2023-02-19T14:41:57.638Z,1.73
2023-02-19T14:44:30.448Z,2.53
2023-02-19T14:47:07.030Z,3.43
2023-02-19T14:49:46.814Z,2.27
2023-02-19T14:52:17.809Z,1.07
2023-02-19T14:54:59.878Z,1.40
2023-02-19T14:57:45.362Z,1.13
2023-02-19T15:00:37.529Z,0.80
2023-02-19T15:03:05.682Z,1.43
2023-02-19T15:05:38.634Z,1.37
2023-02-19T15:08:16.432Z,1.40
2023-02-19T15:10:44.399Z,3.40
2023-02-19T15:13:17.372Z,1.70
2023-02-19T15:15:46.189Z,1.77
2023-02-19T15:18:24.208Z,1.03
2023-02-19T15:20:59.130Z,1.90
2023-02-19T15:23:30.337Z,1.23
2023-02-19T15:25:57.718Z,1.90
2023-02-19T15:28:24.904Z,0.73
2023-02-19T15:31:15.886Z,1.40
2023-02-19T15:33:50.918Z,1.10
2023-02-19T15:36:32.199Z,1.27
2023-02-19T15:39:02.652Z,3.63
2023-02-19T15:41:34.529Z,1.53
2023-02-19T15:44:30.368Z,1.13
2023-02-19T15:47:02.201Z,1.23
2023-02-19T15:49:42.343Z,1.33
2023-02-19T15:52:26.733Z,1.10
2023-02-19T15:55:48.100Z,4.90
2023-02-19T15:58:38.230Z,1.30
2023-02-19T16:01:13.105Z,3.40
2023-02-19T16:03:40.658Z,1.20
2023-02-19T16:06:16.537Z,1.40
2023-02-19T16:08:47.054Z,1.33
2023-02-19T16:11:22.782Z,1.73
2023-02-19T16:13:51.130Z,2.80
2023-02-19T16:16:35.037Z,1.43
2023-02-19T16:19:02.270Z,1.97
2023-02-19T16:21:29.349Z,2.70
2023-02-19T16:24:14.700Z,1.40
2023-02-19T16:26:43.568Z,0.77
2023-02-19T16:29:22.080Z,2.40
2023-02-19T16:32:16.498Z,2.43
2023-02-19T16:34:48.067Z,2.73
2023-02-19T16:37:35.062Z,2.40
2023-02-19T16:40:07.752Z,2.07
2023-02-19T16:42:55.116Z,2.53
2023-02-19T16:45:21.926Z,1.47
2023-02-19T16:47:50.976Z,4.63
2023-02-19T16:50:24.453Z,2.07
2023-02-19T16:53:03.085Z,1.47
2023-02-19T16:55:32.588Z,1.97
2023-02-19T16:57:59.461Z,2.63
2023-02-19T17:00:29.877Z,2.00
2023-02-19T17:03:09.057Z,2.20
2023-02-19T17:05:37.487Z,2.67
2023-02-19T17:08:38.539Z,3.07
2023-02-19T17:11:12.011Z,2.90
2023-02-19T17:13:39.425Z,3.43
2023-02-19T17:16:06.817Z,2.57
2023-02-19T17:18:33.751Z,1.63
2023-02-19T17:21:17.856Z,1.20
2023-02-19T17:23:45.066Z,1.77
2023-02-19T17:26:21.590Z,1.83
2023-02-19T17:28:48.989Z,2.67
2023-02-19T17:31:16.743Z,3.53
2023-02-19T17:33:44.716Z,1.67
2023-02-19T17:36:27.814Z,2.40
2023-02-19T17:38:54.845Z,3.80
2023-02-19T17:41:21.735Z,2.53
2023-02-19T17:43:50.443Z,2.37
2023-02-19T17:46:20.471Z,3.23
2023-02-19T17:48:47.349Z,3.13
2023-02-19T17:51:14.747Z,2.83
2023-02-19T17:53:42.327Z,2.00
2023-02-19T17:56:09.366Z,2.63
2023-02-19T17:58:36.165Z,1.90
2023-02-19T18:01:03.007Z,2.47
2023-02-19T18:03:30.055Z,2.73
2023-02-19T18:05:56.956Z,1.10
2023-02-19T18:08:23.720Z,2.60
2023-02-19T18:10:50.595Z,1.87
2023-02-19T18:13:17.362Z,3.27
2023-02-19T18:15:44.878Z,2.43
2023-02-19T18:18:12.267Z,2.37
2023-02-19T18:20:39.104Z,2.63
2023-02-19T18:23:06.056Z,2.07
2023-02-19T18:25:32.842Z,1.80
2023-02-19T18:27:59.747Z,2.87
2023-02-19T18:30:28.513Z,2.07
2023-02-19T18:32:55.543Z,2.30
2023-02-19T18:35:22.360Z,3.23
2023-02-19T18:37:53.442Z,2.30
2023-02-19T18:40:22.274Z,2.23
2023-02-19T18:42:49.221Z,1.67
2023-02-19T18:45:16.185Z,2.00
2023-02-19T18:47:46.428Z,2.00
2023-02-19T18:50:13.412Z,1.77
2023-02-19T18:52:40.233Z,3.03
2023-02-19T18:55:07.987Z,1.77
2023-02-19T18:57:34.761Z,2.13
2023-02-19T19:00:01.528Z,2.83
2023-02-19T19:02:33.743Z,1.43
2023-02-19T19:05:06.815Z,1.93
2023-02-19T19:07:33.621Z,3.37
2023-02-19T19:10:00.381Z,1.73
2023-02-19T19:12:27.238Z,2.70
2023-02-19T19:14:54.645Z,2.63
2023-02-19T19:17:21.472Z,3.07
2023-02-19T19:19:48.262Z,1.37
2023-02-19T19:22:16.509Z,1.70
2023-02-19T19:24:43.338Z,3.30
2023-02-19T19:27:10.308Z,0.70
2023-02-19T19:29:37.256Z,1.63
2023-02-19T19:32:08.212Z,2.93
2023-02-19T19:34:35.397Z,2.43
2023-02-19T19:37:02.206Z,1.63
2023-02-19T19:39:28.953Z,2.53
2023-02-19T19:41:56.898Z,1.70
2023-02-19T19:44:24.093Z,3.27
2023-02-19T19:46:50.952Z,1.37
2023-02-19T19:49:21.845Z,3.17
2023-02-19T19:51:49.013Z,4.67
2023-02-19T19:54:15.862Z,1.20
2023-02-19T19:56:45.435Z,2.30
2023-02-19T19:59:16.741Z,2.60
2023-02-19T20:01:51.890Z,2.37
2023-02-19T20:04:21.895Z,1.13
2023-02-19T20:06:48.998Z,2.70
2023-02-19T20:09:17.405Z,4.33
2023-02-19T20:11:50.350Z,2.10
2023-02-19T20:14:19.758Z,3.70
2023-02-19T20:16:47.529Z,2.50
2023-02-19T20:19:18.540Z,2.80
2023-02-19T20:21:50.980Z,2.17
2023-02-19T20:24:24.073Z,2.73
2023-02-19T20:26:53.603Z,2.87
2023-02-19T20:29:20.830Z,4.30
2023-02-19T20:31:49.925Z,3.03
2023-02-19T20:34:17.499Z,2.13
2023-02-19T20:36:46.734Z,3.97
2023-02-19T20:39:15.681Z,2.37
2023-02-19T20:41:50.909Z,3.27
2023-02-19T20:44:18.527Z,2.67
2023-02-19T20:46:48.601Z,2.73
2023-02-19T20:49:18.163Z,3.93
2023-02-19T20:51:51.776Z,1.63
2023-02-19T20:54:21.016Z,3.67
2023-02-19T20:56:50.569Z,3.63
2023-02-19T20:59:18.672Z,2.00
2023-02-19T21:01:45.660Z,3.53
2023-02-19T21:04:13.331Z,1.63
2023-02-19T21:06:40.330Z,2.67
2023-02-19T21:09:07.979Z,3.20
2023-02-19T21:11:34.835Z,2.67
2023-02-19T21:14:01.678Z,1.83
2023-02-19T21:16:31.945Z,1.70
2023-02-19T21:18:59.603Z,1.87
2023-02-19T21:21:26.961Z,2.93
2023-02-19T21:23:57.180Z,2.63
2023-02-19T21:26:25.220Z,2.30
2023-02-19T21:28:52.910Z,2.23
2023-02-19T21:31:25.209Z,1.87
2023-02-19T21:33:52.256Z,2.63
2023-02-19T21:36:19.042Z,5.13
2023-02-19T21:38:46.510Z,3.07
2023-02-19T21:41:13.283Z,3.57
2023-02-19T21:43:40.086Z,2.37
2023-02-19T21:46:06.935Z,3.53
2023-02-19T21:48:33.800Z,3.47
2023-02-19T21:51:00.758Z,2.13
2023-02-19T21:53:27.546Z,1.67
2023-02-19T21:56:10.650Z,3.73
2023-02-19T21:58:37.500Z,3.93
2023-02-19T22:01:04.461Z,3.43
2023-02-19T22:03:31.343Z,4.27
2023-02-19T22:06:02.171Z,3.57
2023-02-19T22:08:28.959Z,3.17
2023-02-19T22:10:55.786Z,1.80
2023-02-19T22:13:22.632Z,2.70
2023-02-19T22:15:49.484Z,4.00
2023-02-19T22:18:16.262Z,3.53
2023-02-19T22:20:43.064Z,5.10
2023-02-19T22:23:09.812Z,2.70
2023-02-19T22:25:36.653Z,3.57
2023-02-19T22:28:04.977Z,2.87
2023-02-19T22:30:31.825Z,2.53
2023-02-19T22:32:58.638Z,4.63
2023-02-19T22:35:25.578Z,3.93
2023-02-19T22:37:52.860Z,3.43
2023-02-19T22:40:19.634Z,3.07
2023-02-19T22:42:46.410Z,3.23
2023-02-19T22:45:14.398Z,3.00
2023-02-19T22:47:41.986Z,5.00
2023-02-19T22:50:15.986Z,2.67
2023-02-19T22:52:42.733Z,4.43
2023-02-19T22:55:09.553Z,2.87
2023-02-19T22:57:36.346Z,4.10
2023-02-19T23:00:08.489Z,3.00
2023-02-19T23:02:35.249Z,2.97
2023-02-19T23:05:02.103Z,4.53
2023-02-19T23:07:28.876Z,3.73
2023-02-19T23:09:55.697Z,3.90
2023-02-19T23:12:23.185Z,3.80
2023-02-19T23:14:50.016Z,3.70
2023-02-19T23:17:16.819Z,4.00
2023-02-19T23:19:43.665Z,3.53
2023-02-19T23:22:10.528Z,2.60
2023-02-19T23:24:37.334Z,2.60
2023-02-19T23:27:04.116Z,4.37
2023-02-19T23:29:31.004Z,2.83
2023-02-19T23:32:00.243Z,3.70
2023-02-19T23:34:27.102Z,3.83
2023-02-19T23:36:55.356Z,3.23
2023-02-19T23:39:22.780Z,2.90
2023-02-19T23:41:55.382Z,4.37
2023-02-19T23:44:24.513Z,3.57
2023-02-19T23:46:52.295Z,6.27
2023-02-19T23:49:19.455Z,3.73
2023-02-19T23:51:46.434Z,2.40
2023-02-19T23:54:13.473Z,3.63
2023-02-19T23:56:40.349Z,2.47
2023-02-19T23:59:07.155Z,3.00
